Web Analytics

Nearby METAR Reports

 

LGTS - Thessaloniki/Mik, Greece
Distance from station: S 19km
Updated: 22/09/2023 20:50
Few Clouds
Few Clouds
 Wind from WSW
Wind: WSW 7 km/h
Temperature: 25°C
Dew Point: 20°C
Humidity: 74%
Barometer: 1016 hPa
Clouds: Few Clouds
Visibility: 10 km
Cloud details: Few Clouds 914 m
2023/09/22 17:50 LGTS 221750Z 24004KT 9999 FEW030 25/20 Q1016 NOSIG
LGKZ - Kozani (civ/Army, Greece
Distance from station: WSW 108km
Updated: 22/09/2023 20:50

 Wind from varies
Wind: varies 4 km/h
Temperature: 23°C
Dew Point: 11°C
Humidity: 47%
Barometer: 1019 hPa
2023/09/22 17:50 LGKZ 221750Z AUTO VRB02KT //// // ////// 23/11 Q1019 RE//
 
LWSK - Skopje/Petrovac, Northen Macedonia
Distance from station: NW 183km
Updated: 22/09/2023 21:00
Clear
Clear
 Wind from SSW
Wind: SSW 6 km/h
Temperature: 25°C
Dew Point: 16°C
Humidity: 57%
Barometer: 1015 hPa
Summary: Clear
Visibility: greater than 10 km
2023/09/22 18:00 LWSK 221800Z 20003KT CAVOK 25/16 Q1015 NOSIG
LWOH - Ohrid, Northen Macedonia
Distance from station: WNW 197km
Updated: 22/09/2023 20:30
Clear
Clear
 Wind from ENE
Wind: ENE 4 km/h
Temperature: 21°C
Dew Point: 8°C
Humidity: 43%
Barometer: 1019 hPa
Summary: Clear
Visibility: greater than 10 km
2023/09/22 17:30 LWOH 221730Z 06002KT CAVOK 21/08 Q1019